createdAt,value
2019-06-01T00:00:11.545Z,79.42
2019-06-01T00:02:36.082Z,79.13
2019-06-01T00:05:06.484Z,79.74
2019-06-01T00:07:34.986Z,80.53
2019-06-01T00:10:04.629Z,80.83
2019-06-01T00:12:33.095Z,80.89
2019-06-01T00:15:01.508Z,80.29
2019-06-01T00:17:29.946Z,79.96
2019-06-01T00:19:58.420Z,79.99
2019-06-01T00:22:26.838Z,79.93
2019-06-01T00:24:55.288Z,80.89
2019-06-01T00:27:23.733Z,81.08
2019-06-01T00:29:53.097Z,80.67
2019-06-01T00:32:21.590Z,81.65
2019-06-01T00:34:50.063Z,81.52
2019-06-01T00:37:18.544Z,81.43
2019-06-01T00:39:47.871Z,81.37
2019-06-01T00:42:16.573Z,81.94
2019-06-01T00:44:46.225Z,82.29
2019-06-01T00:47:14.761Z,82.12
2019-06-01T00:49:43.236Z,82.49
2019-06-01T00:52:11.744Z,82.73
2019-06-01T00:54:40.185Z,82.89
2019-06-01T00:57:08.690Z,83.16
2019-06-01T00:59:37.460Z,83.26
2019-06-01T01:02:05.905Z,83.42
2019-06-01T01:04:34.361Z,83.19
2019-06-01T01:07:02.839Z,83.20
2019-06-01T01:09:31.317Z,83.30
2019-06-01T01:11:59.812Z,83.92
2019-06-01T01:14:28.319Z,83.55
2019-06-01T01:16:56.788Z,83.37
2019-06-01T01:19:25.260Z,83.80
2019-06-01T01:21:56.327Z,84.28
2019-06-01T01:24:24.807Z,83.94
2019-06-01T01:26:53.299Z,83.68
2019-06-01T01:29:21.865Z,83.57
2019-06-01T01:31:51.108Z,84.57
2019-06-01T01:34:19.578Z,83.61
2019-06-01T01:36:48.045Z,84.16
2019-06-01T01:39:16.487Z,84.01
2019-06-01T01:41:44.946Z,84.93
2019-06-01T01:44:13.410Z,84.32
2019-06-01T01:46:41.907Z,84.02
2019-06-01T01:49:10.408Z,84.07
2019-06-01T01:51:38.824Z,84.21
2019-06-01T01:54:08.851Z,84.62
2019-06-01T01:56:37.298Z,84.62
2019-06-01T01:59:07.296Z,84.77
2019-06-01T02:01:35.798Z,84.55
2019-06-01T02:04:04.631Z,84.86
2019-06-01T02:06:33.155Z,85.01
2019-06-01T02:09:01.939Z,85.32
2019-06-01T02:11:30.599Z,84.92
2019-06-01T02:13:59.923Z,85.00
2019-06-01T02:16:28.452Z,84.41
2019-06-01T02:18:58.467Z,84.90
2019-06-01T02:21:27.266Z,85.06
2019-06-01T02:23:56.912Z,85.58
2019-06-01T02:26:25.433Z,85.30
2019-06-01T02:28:55.508Z,85.28
2019-06-01T02:31:39.747Z,85.94
2019-06-01T02:33:54.110Z,85.62
2019-06-01T02:36:22.574Z,85.93
2019-06-01T02:38:51.058Z,86.11
2019-06-01T02:41:19.482Z,86.24
2019-06-01T02:43:48.132Z,86.43
2019-06-01T02:46:16.604Z,86.74
2019-06-01T02:48:45.045Z,86.66
2019-06-01T02:51:13.459Z,86.94
2019-06-01T02:53:41.939Z,87.07
2019-06-01T02:56:10.423Z,87.06
2019-06-01T02:58:38.907Z,86.89
2019-06-01T03:01:16.101Z,86.77
2019-06-01T03:03:44.612Z,87.13
2019-06-01T03:06:14.949Z,87.05
2019-06-01T03:08:45.452Z,86.92
2019-06-01T03:11:15.531Z,87.04
2019-06-01T03:13:46.485Z,87.33
2019-06-01T03:16:16.555Z,87.41
2019-06-01T03:18:46.096Z,87.55
2019-06-01T03:21:17.588Z,87.78
2019-06-01T03:23:48.397Z,87.57
2019-06-01T03:26:17.388Z,87.22
2019-06-01T03:28:48.905Z,87.19
2019-06-01T03:31:17.312Z,87.10
2019-06-01T03:33:45.796Z,87.25
2019-06-01T03:36:15.623Z,87.19
2019-06-01T03:38:45.102Z,87.41
2019-06-01T03:41:13.625Z,87.06
2019-06-01T03:43:42.084Z,86.75
2019-06-01T03:46:10.635Z,86.76
2019-06-01T03:48:39.055Z,86.54
2019-06-01T03:51:08.289Z,86.69
2019-06-01T03:53:36.959Z,86.62
2019-06-01T03:56:05.533Z,86.78
2019-06-01T03:58:33.965Z,86.86
2019-06-01T04:01:03.160Z,86.87
2019-06-01T04:03:31.805Z,86.87
2019-06-01T04:06:01.183Z,86.69
2019-06-01T04:08:29.682Z,86.73
2019-06-01T04:10:58.153Z,86.51
2019-06-01T04:13:26.584Z,86.57
2019-06-01T04:15:55.094Z,86.90
2019-06-01T04:18:23.592Z,86.65
2019-06-01T04:20:52.065Z,86.50
2019-06-01T04:23:22.023Z,86.28
2019-06-01T04:25:50.535Z,86.05
2019-06-01T04:28:18.947Z,85.89
2019-06-01T04:30:47.478Z,86.18
2019-06-01T04:33:15.980Z,85.55
2019-06-01T04:35:44.571Z,85.23
2019-06-01T04:38:13.390Z,86.07
2019-06-01T04:40:42.190Z,85.41
2019-06-01T04:43:11.991Z,85.31
2019-06-01T04:45:40.551Z,85.28
2019-06-01T04:48:09.030Z,84.74
2019-06-01T04:50:37.526Z,84.66
2019-06-01T04:53:06.859Z,84.85
2019-06-01T04:55:35.514Z,83.85
2019-06-01T04:58:04.636Z,83.60
2019-06-01T05:00:33.104Z,83.19
2019-06-01T05:03:05.276Z,83.22
2019-06-01T05:05:31.765Z,82.97
2019-06-01T05:08:00.230Z,82.34
2019-06-01T05:10:28.675Z,82.38
2019-06-01T05:12:57.146Z,81.88
2019-06-01T05:15:25.616Z,81.47
2019-06-01T05:17:54.081Z,81.54
2019-06-01T05:20:22.544Z,81.71
2019-06-01T05:22:51.012Z,81.11
2019-06-01T05:25:19.482Z,80.50
2019-06-01T05:27:47.920Z,80.05
2019-06-01T05:30:18.051Z,79.87
2019-06-01T05:32:46.544Z,80.85
2019-06-01T05:35:15.894Z,79.84
2019-06-01T05:37:44.359Z,79.57
2019-06-01T05:40:12.920Z,80.34
2019-06-01T05:42:41.387Z,80.20
2019-06-01T05:45:11.281Z,80.04
2019-06-01T05:47:39.880Z,79.72
2019-06-01T05:50:10.590Z,79.79
2019-06-01T05:52:38.465Z,79.27
2019-06-01T05:55:07.501Z,79.42
2019-06-01T05:57:36.008Z,79.01
2019-06-01T06:00:07.376Z,78.38
2019-06-01T06:02:35.984Z,79.49
2019-06-01T06:05:07.198Z,78.64
2019-06-01T06:07:36.256Z,78.00
2019-06-01T06:10:06.762Z,79.32
2019-06-01T06:12:35.255Z,78.08
2019-06-01T06:15:04.662Z,77.80
2019-06-01T06:17:33.159Z,76.98
2019-06-01T06:20:01.661Z,76.68
2019-06-01T06:22:30.118Z,75.88
2019-06-01T06:25:00.047Z,75.72
2019-06-01T06:27:28.647Z,75.87
2019-06-01T06:29:58.662Z,76.49
2019-06-01T06:32:27.088Z,75.45
2019-06-01T06:34:55.575Z,76.82
2019-06-01T06:37:24.059Z,74.26
2019-06-01T06:39:52.553Z,74.83
2019-06-01T06:42:20.987Z,75.67
2019-06-01T06:44:49.539Z,75.02
2019-06-01T06:47:18.776Z,72.85
2019-06-01T06:49:47.425Z,73.38
2019-06-01T06:52:15.919Z,73.41
2019-06-01T06:54:44.492Z,73.25
2019-06-01T06:57:12.974Z,72.31
2019-06-01T06:59:41.425Z,72.01
2019-06-01T07:02:09.910Z,71.87
2019-06-01T07:04:38.383Z,69.54
2019-06-01T07:07:06.836Z,67.96
2019-06-01T07:09:35.295Z,67.48
2019-06-01T07:12:05.292Z,67.81
2019-06-01T07:14:33.791Z,67.00
2019-06-01T07:17:02.347Z,65.36
2019-06-01T07:19:31.901Z,64.76
2019-06-01T07:22:00.502Z,65.68
2019-06-01T07:24:29.909Z,65.75
2019-06-01T07:27:00.031Z,64.78
2019-06-01T07:29:28.547Z,63.85
2019-06-01T07:31:57.011Z,63.88
2019-06-01T07:34:33.517Z,64.71
2019-06-01T07:36:55.818Z,63.09
2019-06-01T07:39:24.830Z,63.02
2019-06-01T07:41:55.105Z,63.22
2019-06-01T07:44:24.882Z,62.87
2019-06-01T07:46:53.480Z,62.78
2019-06-01T07:49:23.231Z,62.15
2019-06-01T07:51:52.021Z,61.45
2019-06-01T07:54:22.334Z,61.85
2019-06-01T07:56:50.773Z,61.27
2019-06-01T07:59:19.322Z,60.42
2019-06-01T08:01:47.914Z,59.51
2019-06-01T08:04:17.992Z,60.26
2019-06-01T08:06:48.568Z,59.49
2019-06-01T08:09:16.736Z,58.96
2019-06-01T08:11:46.923Z,57.99
2019-06-01T08:14:15.374Z,57.14
2019-06-01T08:16:45.125Z,57.64
2019-06-01T08:19:13.767Z,57.87
2019-06-01T08:21:42.246Z,56.82
2019-06-01T08:24:10.906Z,59.12
2019-06-01T08:26:39.408Z,58.11
2019-06-01T08:29:07.932Z,57.27
2019-06-01T08:31:36.400Z,57.68
2019-06-01T08:34:04.931Z,57.17
2019-06-01T08:36:33.883Z,55.09
2019-06-01T08:39:02.456Z,56.04
2019-06-01T08:41:31.551Z,54.46
2019-06-01T08:44:00.048Z,56.27
2019-06-01T08:46:29.591Z,55.87
2019-06-01T08:48:58.646Z,56.84
2019-06-01T08:51:28.209Z,52.67
2019-06-01T08:54:01.312Z,54.59
2019-06-01T08:56:30.286Z,52.72
2019-06-01T08:58:58.794Z,55.82
2019-06-01T09:01:28.550Z,53.19
2019-06-01T09:03:57.277Z,53.64
2019-06-01T09:06:26.721Z,53.67
2019-06-01T09:08:57.929Z,52.69
2019-06-01T09:11:27.036Z,52.83
2019-06-01T09:13:55.531Z,55.49
2019-06-01T09:16:27.695Z,51.79
2019-06-01T09:18:56.024Z,53.15
2019-06-01T09:21:25.380Z,54.22
2019-06-01T09:23:53.953Z,52.96
2019-06-01T09:26:23.217Z,51.49
2019-06-01T09:28:51.763Z,52.26
2019-06-01T09:31:20.273Z,53.61
2019-06-01T09:33:50.388Z,52.83
2019-06-01T09:36:18.803Z,52.39
2019-06-01T09:38:47.365Z,51.73
2019-06-01T09:41:16.075Z,51.97
2019-06-01T09:43:46.052Z,50.68
2019-06-01T09:46:16.117Z,49.69
2019-06-01T09:48:46.104Z,52.71
2019-06-01T09:51:14.655Z,50.60
2019-06-01T09:53:43.138Z,49.43
2019-06-01T09:56:11.610Z,50.10
2019-06-01T09:58:40.166Z,47.69
2019-06-01T10:01:08.771Z,48.89
2019-06-01T10:03:38.583Z,48.07
2019-06-01T10:06:07.195Z,47.17
2019-06-01T10:08:36.156Z,47.30
2019-06-01T10:11:04.788Z,50.74
2019-06-01T10:13:36.287Z,46.13
2019-06-01T10:16:04.914Z,48.11
2019-06-01T10:18:35.181Z,46.24
2019-06-01T10:21:03.935Z,49.37
2019-06-01T10:23:34.519Z,46.43
2019-06-01T10:26:03.383Z,47.59
2019-06-01T10:28:33.562Z,45.37
2019-06-01T10:31:02.096Z,47.38
2019-06-01T10:33:32.888Z,46.78
2019-06-01T10:36:16.581Z,48.18
2019-06-01T10:38:31.596Z,45.96
2019-06-01T10:41:00.145Z,48.28
2019-06-01T10:43:28.741Z,48.07
2019-06-01T10:45:57.282Z,44.78
2019-06-01T10:48:25.782Z,45.70
2019-06-01T10:50:54.320Z,45.07
2019-06-01T10:53:24.510Z,45.68
2019-06-01T10:55:52.942Z,45.81
2019-06-01T10:58:21.505Z,45.90
2019-06-01T11:00:51.265Z,46.37
2019-06-01T11:03:19.918Z,43.46
2019-06-01T11:05:48.400Z,45.21
2019-06-01T11:08:16.825Z,44.52
2019-06-01T11:10:45.382Z,46.04
2019-06-01T11:13:16.531Z,44.11
2019-06-01T11:15:51.954Z,44.75
2019-06-01T11:18:25.528Z,43.71
2019-06-01T11:20:53.968Z,45.57
2019-06-01T11:23:25.393Z,46.30
2019-06-01T11:25:53.841Z,43.68
2019-06-01T11:28:22.550Z,45.33
2019-06-01T11:30:51.006Z,42.87
2019-06-01T11:33:19.466Z,45.35
2019-06-01T11:35:47.918Z,44.41
2019-06-01T11:38:16.383Z,45.37
2019-06-01T11:40:46.462Z,46.29
2019-06-01T11:43:18.554Z,42.86
2019-06-01T11:45:49.535Z,42.39
2019-06-01T11:48:16.856Z,41.17
2019-06-01T11:50:46.848Z,41.19
2019-06-01T11:53:15.310Z,40.49
2019-06-01T11:55:47.499Z,42.49
2019-06-01T11:58:17.654Z,43.76
2019-06-01T12:00:46.149Z,43.14
2019-06-01T12:03:14.615Z,44.21
2019-06-01T12:05:44.131Z,41.86
2019-06-01T12:08:14.168Z,39.92
2019-06-01T12:10:43.148Z,42.76
2019-06-01T12:13:11.660Z,41.12
2019-06-01T12:15:46.396Z,36.89
2019-06-01T12:18:15.034Z,39.04
2019-06-01T12:20:47.746Z,37.50
2019-06-01T12:23:16.160Z,35.59
2019-06-01T12:25:44.624Z,39.01
2019-06-01T12:28:16.121Z,33.66
2019-06-01T12:30:45.826Z,35.76
2019-06-01T12:33:17.202Z,34.10
2019-06-01T12:35:46.801Z,34.94
2019-06-01T12:38:19.325Z,33.18
2019-06-01T12:40:51.536Z,34.62
2019-06-01T12:43:20.075Z,31.49
2019-06-01T12:46:04.754Z,30.43
2019-06-01T12:48:19.144Z,34.19
2019-06-01T12:50:50.782Z,35.55
2019-06-01T12:53:18.171Z,35.40
2019-06-01T12:55:48.922Z,32.21
2019-06-01T12:58:16.936Z,31.36
2019-06-01T13:00:46.175Z,34.31
2019-06-01T13:03:14.771Z,36.11
2019-06-01T13:05:43.615Z,34.38
2019-06-01T13:08:12.223Z,34.67
2019-06-01T13:10:41.049Z,32.36
2019-06-01T13:13:09.560Z,30.42
2019-06-01T13:15:41.127Z,31.34
2019-06-01T13:18:09.672Z,32.19
2019-06-01T13:20:38.236Z,31.93
2019-06-01T13:23:06.786Z,34.44
2019-06-01T13:25:35.303Z,31.33
2019-06-01T13:28:03.770Z,33.29
2019-06-01T13:30:32.309Z,30.32
2019-06-01T13:33:01.967Z,32.38
2019-06-01T13:35:30.359Z,32.73
2019-06-01T13:38:11.634Z,33.46
2019-06-01T13:40:28.569Z,32.79
2019-06-01T13:42:57.083Z,34.16
2019-06-01T13:45:27.741Z,34.78
2019-06-01T13:47:56.171Z,31.80
2019-06-01T13:50:27.007Z,37.00
2019-06-01T13:52:55.334Z,34.56
2019-06-01T13:55:23.802Z,35.27
2019-06-01T13:57:52.521Z,38.24
2019-06-01T14:00:30.246Z,38.19
2019-06-01T14:02:55.548Z,37.94
2019-06-01T14:05:21.417Z,38.72
2019-06-01T14:07:51.599Z,38.86
2019-06-01T14:10:20.040Z,38.87
2019-06-01T14:12:49.367Z,39.16
2019-06-01T14:15:18.016Z,37.12
2019-06-01T14:17:46.502Z,38.06
2019-06-01T14:20:15.728Z,37.96
2019-06-01T14:22:45.670Z,38.61
2019-06-01T14:25:15.531Z,38.95
2019-06-01T14:27:44.021Z,37.66
2019-06-01T14:30:14.019Z,37.73
2019-06-01T14:32:42.506Z,38.49
2019-06-01T14:35:11.324Z,37.34
2019-06-01T14:37:39.746Z,37.51
2019-06-01T14:40:08.381Z,37.11
2019-06-01T14:42:36.772Z,37.98
2019-06-01T14:45:09.823Z,39.26
2019-06-01T14:47:38.244Z,38.69
2019-06-01T14:50:10.662Z,39.77
2019-06-01T14:52:39.137Z,39.24
2019-06-01T14:55:11.362Z,37.24
2019-06-01T14:57:41.539Z,38.46
2019-06-01T15:00:11.435Z,39.80
2019-06-01T15:02:39.846Z,38.30
2019-06-01T15:05:08.745Z,39.76
2019-06-01T15:07:37.203Z,36.97
2019-06-01T15:10:10.755Z,37.70
2019-06-01T15:12:39.408Z,38.57
2019-06-01T15:15:08.796Z,40.00
2019-06-01T15:17:37.320Z,40.39
2019-06-01T15:20:09.318Z,41.31
2019-06-01T15:22:39.423Z,40.37
2019-06-01T15:25:09.598Z,39.84
2019-06-01T15:27:38.022Z,37.45
2019-06-01T15:30:07.749Z,39.43
2019-06-01T15:32:36.138Z,38.09
2019-06-01T15:35:08.679Z,37.65
2019-06-01T15:37:37.118Z,36.85
2019-06-01T15:40:07.680Z,38.25
2019-06-01T15:42:35.386Z,40.58
2019-06-01T15:45:05.526Z,38.15
2019-06-01T15:47:34.005Z,39.40
2019-06-01T15:50:02.686Z,40.61
2019-06-01T15:52:31.152Z,40.01
2019-06-01T15:55:00.472Z,39.32
2019-06-01T15:57:30.593Z,39.36
2019-06-01T15:59:59.104Z,40.40
2019-06-01T16:02:29.100Z,40.02
2019-06-01T16:04:57.606Z,39.58
2019-06-01T16:07:26.050Z,41.34
2019-06-01T16:09:57.411Z,41.45
2019-06-01T16:12:25.885Z,41.53
2019-06-01T16:14:55.448Z,41.45
2019-06-01T16:17:24.128Z,39.14
2019-06-01T16:19:53.828Z,38.66
2019-06-01T16:22:22.350Z,38.88
2019-06-01T16:24:50.780Z,39.55
2019-06-01T16:27:19.227Z,37.48
2019-06-01T16:29:47.979Z,37.72
2019-06-01T16:32:16.481Z,38.21
2019-06-01T16:34:44.898Z,38.76
2019-06-01T16:37:13.371Z,39.87
2019-06-01T16:39:57.994Z,38.97
2019-06-01T16:42:11.972Z,39.36
2019-06-01T16:44:40.397Z,41.39
2019-06-01T16:47:08.811Z,39.99
2019-06-01T16:49:37.291Z,42.21
2019-06-01T16:52:07.132Z,41.96
2019-06-01T16:54:35.770Z,41.26
2019-06-01T16:57:05.367Z,38.99
2019-06-01T16:59:33.947Z,40.00
2019-06-01T17:02:03.376Z,40.92
2019-06-01T17:04:31.917Z,38.13
2019-06-01T17:07:00.731Z,39.77
2019-06-01T17:09:29.176Z,40.36
2019-06-01T17:11:58.680Z,39.14
2019-06-01T17:14:29.343Z,39.68
2019-06-01T17:16:57.188Z,39.52
2019-06-01T17:19:25.563Z,39.50
2019-06-01T17:21:54.038Z,39.80
2019-06-01T17:24:22.522Z,40.81
2019-06-01T17:26:51.514Z,41.32
2019-06-01T17:29:27.733Z,42.86
2019-06-01T17:32:12.578Z,44.40
2019-06-01T17:34:26.388Z,45.25
2019-06-01T17:36:56.068Z,44.05
2019-06-01T17:39:24.411Z,42.91
2019-06-01T17:42:24.368Z,44.82
2019-06-01T17:44:52.975Z,45.32
2019-06-01T17:47:21.430Z,45.32
2019-06-01T17:49:49.194Z,41.26
2019-06-01T17:52:17.672Z,45.36
2019-06-01T17:54:46.197Z,43.59
2019-06-01T17:57:14.661Z,42.51
2019-06-01T17:59:43.145Z,46.43
2019-06-01T18:02:13.206Z,43.13
2019-06-01T18:04:41.670Z,45.33
2019-06-01T18:07:10.290Z,44.60
2019-06-01T18:09:38.811Z,41.96
2019-06-01T18:12:08.142Z,42.07
2019-06-01T18:14:36.724Z,42.78
2019-06-01T18:17:08.254Z,41.83
2019-06-01T18:19:36.769Z,42.95
2019-06-01T18:22:06.611Z,46.42
2019-06-01T18:24:37.255Z,43.39
2019-06-01T18:27:08.531Z,43.50
2019-06-01T18:29:39.592Z,45.60
2019-06-01T18:32:09.830Z,43.72
2019-06-01T18:34:38.305Z,43.72
2019-06-01T18:37:07.463Z,44.18
2019-06-01T18:39:36.133Z,45.71
2019-06-01T18:42:06.331Z,44.95
2019-06-01T18:44:34.913Z,44.70
2019-06-01T18:47:03.714Z,45.20
2019-06-01T18:49:33.842Z,44.13
2019-06-01T18:52:02.325Z,46.37
2019-06-01T18:54:30.753Z,44.83
2019-06-01T18:57:13.446Z,44.64
2019-06-01T18:59:31.048Z,46.87
2019-06-01T19:01:59.554Z,47.91
2019-06-01T19:04:28.032Z,50.31
2019-06-01T19:06:56.531Z,50.61
2019-06-01T19:09:25.029Z,50.35
2019-06-01T19:11:53.503Z,51.67
2019-06-01T19:14:23.808Z,52.55
2019-06-01T19:16:56.481Z,52.66
2019-06-01T19:19:24.964Z,54.45
2019-06-01T19:21:55.064Z,54.44
2019-06-01T19:24:29.277Z,54.08
2019-06-01T19:27:00.156Z,54.97
2019-06-01T19:29:30.318Z,54.61
2019-06-01T19:31:58.814Z,55.41
2019-06-01T19:34:27.365Z,55.52
2019-06-01T19:36:55.813Z,55.77
2019-06-01T19:39:24.864Z,56.15
2019-06-01T19:41:53.403Z,56.98
2019-06-01T19:44:23.199Z,57.78
2019-06-01T19:46:51.717Z,59.20
2019-06-01T19:49:21.559Z,59.03
2019-06-01T19:51:50.162Z,59.30
2019-06-01T19:54:19.021Z,58.69
2019-06-01T19:56:52.030Z,58.61
2019-06-01T19:59:23.488Z,58.67
2019-06-01T20:01:52.055Z,59.01
2019-06-01T20:04:20.540Z,59.56
2019-06-01T20:06:53.105Z,59.32
2019-06-01T20:09:23.127Z,59.99
2019-06-01T20:12:01.251Z,60.86
2019-06-01T20:14:25.164Z,61.43
2019-06-01T20:16:53.382Z,61.89
2019-06-01T20:19:23.016Z,62.04
2019-06-01T20:21:51.536Z,61.67
2019-06-01T20:24:21.364Z,61.76
2019-06-01T20:26:51.417Z,61.22
2019-06-01T20:29:19.884Z,60.93
2019-06-01T20:31:48.480Z,60.35
2019-06-01T20:34:17.968Z,60.41
2019-06-01T20:36:46.583Z,59.88
2019-06-01T20:39:16.785Z,59.76
2019-06-01T20:41:47.078Z,59.48
2019-06-01T20:44:16.684Z,59.67
2019-06-01T20:46:46.917Z,60.38
2019-06-01T20:49:16.970Z,60.67
2019-06-01T20:51:45.475Z,61.02
2019-06-01T20:54:14.972Z,61.59
2019-06-01T20:56:43.468Z,62.83
2019-06-01T20:59:13.154Z,63.17
2019-06-01T21:01:41.937Z,63.55
2019-06-01T21:04:11.989Z,63.86
2019-06-01T21:06:42.135Z,64.06
2019-06-01T21:09:10.642Z,64.83
2019-06-01T21:11:39.195Z,64.60
2019-06-01T21:14:07.702Z,64.41
2019-06-01T21:16:36.190Z,64.87
2019-06-01T21:19:04.823Z,65.71
2019-06-01T21:21:33.255Z,65.92
2019-06-01T21:24:01.709Z,66.09
2019-06-01T21:26:30.143Z,67.12
2019-06-01T21:28:58.624Z,67.22
2019-06-01T21:31:27.115Z,67.81
2019-06-01T21:33:55.574Z,66.44
2019-06-01T21:36:23.996Z,66.46
2019-06-01T21:38:52.400Z,65.79
2019-06-01T21:41:21.569Z,64.72
2019-06-01T21:43:55.007Z,64.36
2019-06-01T21:46:25.779Z,66.44
2019-06-01T21:48:53.517Z,67.37
2019-06-01T21:51:24.356Z,68.46
2019-06-01T21:53:52.213Z,68.27
2019-06-01T21:56:22.246Z,67.58
2019-06-01T21:58:50.833Z,68.86
2019-06-01T22:01:22.689Z,69.46
2019-06-01T22:03:51.488Z,67.76
2019-06-01T22:06:21.896Z,67.01
2019-06-01T22:08:52.787Z,67.86
2019-06-01T22:11:21.399Z,68.25
2019-06-01T22:13:49.981Z,67.98
2019-06-01T22:16:19.964Z,67.99
2019-06-01T22:18:48.448Z,67.90
2019-06-01T22:21:17.630Z,67.74
2019-06-01T22:23:46.092Z,67.76
2019-06-01T22:26:14.529Z,67.97
2019-06-01T22:28:44.602Z,68.38
2019-06-01T22:31:13.036Z,68.76
2019-06-01T22:33:41.508Z,69.02
2019-06-01T22:36:09.947Z,69.29
2019-06-01T22:38:38.378Z,69.03
2019-06-01T22:41:06.801Z,69.03
2019-06-01T22:43:46.118Z,69.86
2019-06-01T22:46:07.026Z,69.62
2019-06-01T22:48:36.991Z,69.96
2019-06-01T22:51:05.481Z,69.96
2019-06-01T22:53:34.000Z,70.92
2019-06-01T22:56:02.459Z,71.13
2019-06-01T22:58:31.627Z,71.28
2019-06-01T23:01:01.708Z,71.39
2019-06-01T23:03:30.312Z,72.39
2019-06-01T23:05:58.760Z,72.64
2019-06-01T23:08:27.432Z,71.95
2019-06-01T23:10:55.798Z,72.82
2019-06-01T23:13:24.278Z,73.68
2019-06-01T23:15:52.747Z,73.33
2019-06-01T23:18:21.724Z,74.53
2019-06-01T23:20:50.169Z,74.57
2019-06-01T23:23:18.607Z,74.21
2019-06-01T23:25:47.017Z,75.06
2019-06-01T23:28:17.475Z,75.21
2019-06-01T23:30:45.989Z,75.33
2019-06-01T23:33:14.590Z,73.80
2019-06-01T23:38:10.702Z,75.65
2019-06-01T23:40:40.097Z,76.09
2019-06-01T23:43:08.611Z,76.01
2019-06-01T23:45:38.336Z,76.92
2019-06-01T23:48:06.778Z,77.13
2019-06-01T23:50:38.349Z,77.89
2019-06-01T23:53:13.629Z,77.20
2019-06-01T23:55:36.957Z,77.58
2019-06-01T23:58:05.386Z,78.17
